Terminal Aerodrome Forecast
Issued by NWS

Home | Current Version | Previous Version | Text Only | Print | Product List | Glossary On
Versions: 1 2 3 4 5 6 7 8 9 10 11 12
000
FTUS44 KEPZ 271800 RRA
TAFDMN
TAF
KDMN 271812Z 2718/2818 20007KT P6SM BKN250
     FM272100 23008G16KT P6SM BKN250
     FM280100 25010KT P6SM BKN250=

USA.gov is the U.S. government's official web portal to all federal, state and local government web resources and services.